19:44
Airports
History
Links
Donate
Help keep this website running!
PayPal
Bitcoin
Information on this page is community maintained and may be outdated or inaccurate and is intended for reference only or PC simulator navigating!
Always use approved charts for navigating.
CNR9
Arnstein
Arnstein (CNR9)
Ontario, Canada
4
Lat/Lng:45° 55' 32.43" N / 79° 55' 40.59" W
45.925675 / -79.927943
Elevation:745'ft 227mMSL
ID / ICAO:CNR9
Runways:1
Longest:(03-21) 563.3m 1,848ft Grass
Beacon:White-Green
Distance To
Airport ID:
Nearby VORs <50NM
Nearby NDBs
Nearby WeatherUpdated 03-28-17 19:00 GMT
Nearby weather at CYYB, North Bay located 38.7 nautical miles from CNR9
Altimeter: 30.03
Visibility: 30.0 statute miles
Wind: 9 knots (010°)
Temp: 6°c 43°f
Humidity: 48.6%

METAR: CYYB 281900Z 01009G15KT 340V060 30SM FEW024 BKN280 06/M04 A3003 RMK SC1CI5 SLP186

(Powered by phpweather)
Runway 03 / 21
Dimensions:563.3 x 29.9m 1848' x 98'ft
Surface:Grass
Edge Lights:Low intensity
Runway 03 [A]Runway 21 [B]
Heading:020°TH 200°TH
Lat:
Lng:
45° 55' 23.9"N
79° 55' 45.28"W
45° 55' 40.96"N
79° 55' 35.91"W
Google Map
Nearby Airports
4 Nipissing on 654 24.5 NM
CNC7 ENE 58°
4 Trout Creek Chalet 25.6 NM
CTC1 E 82°
4 North Monetville Skypark 26.2 NM
CPX4 NW 315°
(C) South River-Sundridge 28.9 NM
CPE6 ESE 104°
4 Corbeil Bertha Rd 37.0 NM
CB01 NE 55°
4 Emsdale 38.1 NM
CNA4 SE 132°
(C) North Bay 38.7 NM
CYYB (WX) NE 38°
VFR Chart
Flight Planning at SkyVector.com